Terminal Aerodrome Forecast
Issued by NWS

Home | Current Version | Previous Version | Text Only | Print | Product List | Glossary Off
Versions: 1 2 3 4 5 6 7 8 9 10 11 12 13 14 15 16 17 18 19 20

000
FTUS43 KABR 011649 AAD
TAFATY
TAF AMD
KATY 011649Z 0117/0212 12006KT P6SM VCSH FEW010 SCT028 OVC035
     FM012000 14010KT P6SM VCSH OVC050
     FM020200 VRB06KT P6SM VCSH SCT070 BKN100=

USA.gov is the U.S. government's official web portal to all federal, state and local government web resources and services.